Time;durP1;ratioP1;P1;durP2;ratioP2;P2;SDS_P1;SDS_P2;PMS_P1;PMS_P2;Temp;Humidity;BMP_temperature;BMP_pressure;BME280_temperature;BME280_humidity;BME280_pressure;Samples;Min_cycle;Max_cycle;Signal;HPM_P1;HPM_P2
2022/11/29 00:01:00;;;;;;;95.28;88.28;;;;;;;;;;10202803;28;20057;-69
2022/11/29 00:06:02;;;;;;;99.82;92.40;;;;;;;;;;10199039;28;20121;-69
2022/11/29 00:11:03;;;;;;;96.57;89.50;;;;;;;;;;10190241;28;20052;-70
2022/11/29 00:16:04;;;;;;;97.05;89.78;;;;;;;;;;10189001;28;20041;-70
2022/11/29 00:21:04;;;;;;;94.57;87.60;;;;;;;;;;10186894;28;20050;-71
2022/11/29 00:26:07;;;;;;;101.22;93.47;;;;;;;;;;10186465;28;20079;-70
2022/11/29 00:31:16;;;;;;;100.47;92.78;;;;;;;;;;10184089;28;20053;-70
2022/11/29 00:36:13;;;;;;;101.90;94.18;;;;;;;;;;10187696;28;20122;-70
2022/11/29 00:41:09;;;;;;;95.88;88.15;;;;;;;;;;10190129;28;20081;-70
2022/11/29 00:46:05;;;;;;;95.38;87.85;;;;;;;;;;10188863;28;20129;-69
2022/11/29 00:51:03;;;;;;;99.65;91.95;;;;;;;;;;10193217;28;20046;-70
2022/11/29 00:55:59;;;;;;;101.63;94.15;;;;;;;;;;10190684;28;20046;-70
2022/11/29 01:00:56;;;;;;;96.93;89.70;;;;;;;;;;10178417;28;20068;-70
2022/11/29 01:05:59;;;;;;;103.75;95.90;;;;;;;;;;10194125;28;20048;-69
2022/11/29 01:11:05;;;;;;;98.80;91.25;;;;;;;;;;10199433;28;20045;-70
2022/11/29 01:16:03;;;;;;;102.93;94.95;;;;;;;;;;10201985;28;20076;-70
2022/11/29 01:21:00;;;;;;;100.40;92.45;;;;;;;;;;10186864;28;20049;-70
2022/11/29 01:25:57;;;;;;;92.47;84.63;;;;;;;;;;10204933;28;20053;-70
2022/11/29 01:30:54;;;;;;;93.78;86.20;;;;;;;;;;10181299;28;20141;-70
2022/11/29 01:35:51;;;;;;;99.78;92.25;;;;;;;;;;10199294;28;20095;-70
2022/11/29 01:40:58;;;;;;;97.30;89.32;;;;;;;;;;10206035;28;20136;-70
2022/11/29 01:45:55;;;;;;;94.38;86.60;;;;;;;;;;10186133;28;20045;-69
2022/11/29 01:50:52;;;;;;;90.90;83.22;;;;;;;;;;10184679;28;20056;-69
2022/11/29 01:55:51;;;;;;;97.35;89.65;;;;;;;;;;10184811;28;20141;-69
2022/11/29 02:00:48;;;;;;;97.53;89.40;;;;;;;;;;10190941;28;20049;-69
2022/11/29 02:05:47;;;;;;;90.25;82.75;;;;;;;;;;10171605;28;20442;-69
2022/11/29 02:10:56;;;;;;;93.40;85.68;;;;;;;;;;10184757;28;20056;-68
2022/11/29 02:16:03;;;;;;;92.40;84.75;;;;;;;;;;10210972;28;20053;-70
2022/11/29 02:21:16;;;;;;;91.18;83.65;;;;;;;;;;10193554;28;20073;-70
2022/11/29 02:26:12;;;;;;;;;;;;;;;;;;10191445;28;20089;-70
2022/11/29 02:31:27;;;;;;;92.03;84.00;;;;;;;;;;10180538;28;19925;-69
2022/11/29 02:36:46;;;;;;;89.35;81.35;;;;;;;;;;10180360;28;20050;-69
2022/11/29 02:41:43;;;;;;;87.18;79.53;;;;;;;;;;10157320;28;20058;-69
2022/11/29 02:46:57;;;;;;;90.82;83.50;;;;;;;;;;10177635;28;20057;-70
2022/11/29 02:51:57;;;;;;;93.72;85.63;;;;;;;;;;10181026;28;20050;-70
2022/11/29 02:56:56;;;;;;;94.53;86.25;;;;;;;;;;10177102;28;20125;-70
2022/11/29 03:02:12;;;;;;;92.50;84.35;;;;;;;;;;10188112;28;20033;-70
2022/11/29 03:07:15;;;;;;;89.32;81.32;;;;;;;;;;10181511;28;20133;-70
2022/11/29 03:12:21;;;;;;;85.07;77.45;;;;;;;;;;10183394;28;20088;-69
2022/11/29 03:17:23;;;;;;;88.70;81.15;;;;;;;;;;10186620;28;20033;-69
2022/11/29 03:22:20;;;;;;;86.63;78.75;;;;;;;;;;10190878;28;20133;-69
2022/11/29 03:27:18;;;;;;;89.75;80.85;;;;;;;;;;10186450;28;20053;-69
2022/11/29 03:32:33;;;;;;;87.50;80.03;;;;;;;;;;10190776;28;20132;-70
2022/11/29 03:37:38;;;;;;;85.43;77.40;;;;;;;;;;10191807;28;20034;-70
2022/11/29 03:42:39;;;;;;;90.10;82.25;;;;;;;;;;10193020;28;20045;-70
2022/11/29 03:47:39;;;;;;;86.38;78.97;;;;;;;;;;10177431;28;20041;-70
2022/11/29 03:52:52;;;;;;;88.28;80.28;;;;;;;;;;10184530;28;20440;-69
2022/11/29 03:58:08;;;;;;;86.15;78.15;;;;;;;;;;10182107;28;20050;-69
2022/11/29 04:03:07;;;;;;;91.20;82.65;;;;;;;;;;10192845;28;20046;-70
2022/11/29 04:08:03;;;;;;;83.30;75.28;;;;;;;;;;10184769;28;20045;-69
2022/11/29 04:13:13;;;;;;;88.57;80.20;;;;;;;;;;10189078;28;20043;-71
2022/11/29 04:18:22;;;;;;;86.70;77.90;;;;;;;;;;10192726;28;20461;-70
2022/11/29 04:23:21;;;;;;;82.13;74.03;;;;;;;;;;10183075;28;20141;-70
2022/11/29 04:28:17;;;;;;;84.78;76.88;;;;;;;;;;10193953;28;20472;-70
2022/11/29 04:33:33;;;;;;;77.30;70.18;;;;;;;;;;10192564;28;20460;-72
2022/11/29 04:38:29;;;;;;;79.75;72.05;;;;;;;;;;10187489;28;20653;-72
2022/11/29 04:43:44;;;;;;;76.47;69.05;;;;;;;;;;10182863;28;20081;-70
2022/11/29 04:48:46;;;;;;;75.25;67.80;;;;;;;;;;10188496;28;20049;-72
2022/11/29 04:53:55;;;;;;;79.65;71.82;;;;;;;;;;10188182;28;20581;-72
2022/11/29 04:59:10;;;;;;;74.78;67.10;;;;;;;;;;10166983;28;20044;-70
2022/11/29 05:04:32;;;;;;;78.72;70.95;;;;;;;;;;10178776;28;20572;-73
2022/11/29 05:09:41;;;;;;;73.22;66.07;;;;;;;;;;10179155;28;20050;-73
2022/11/29 05:14:46;;;;;;;77.40;70.00;;;;;;;;;;10184633;28;20042;-73
2022/11/29 05:20:01;;;;;;;75.50;67.43;;;;;;;;;;10183071;28;20661;-73
2022/11/29 05:25:00;;;;;;;74.22;66.47;;;;;;;;;;10185077;28;20056;-72
2022/11/29 05:30:03;;;;;;;76.97;68.97;;;;;;;;;;10195505;28;20128;-72
2022/11/29 05:35:05;;;;;;;81.72;73.32;;;;;;;;;;10193488;28;20613;-73
2022/11/29 05:40:19;;;;;;;76.07;68.28;;;;;;;;;;10181979;28;20053;-72
2022/11/29 05:45:22;;;;;;;75.60;67.68;;;;;;;;;;10176082;28;20062;-70
2022/11/29 05:50:32;;;;;;;77.72;69.78;;;;;;;;;;10195917;28;20104;-72
2022/11/29 05:55:29;;;;;;;76.78;68.72;;;;;;;;;;10172689;28;20049;-73
2022/11/29 06:00:28;;;;;;;79.22;70.88;;;;;;;;;;10169775;28;20060;-73
2022/11/29 06:05:29;;;;;;;76.55;68.80;;;;;;;;;;10193120;28;20045;-73
2022/11/29 06:10:52;;;;;;;78.57;70.13;;;;;;;;;;10208532;28;20042;-73
2022/11/29 06:15:52;;;;;;;74.83;66.87;;;;;;;;;;10176101;28;20049;-72
2022/11/29 06:20:59;;;;;;;80.15;71.65;;;;;;;;;;10180021;28;20287;-71
2022/11/29 06:25:57;;;;;;;73.47;65.88;;;;;;;;;;10202582;28;20050;-71
2022/11/29 06:31:02;;;;;;;73.60;64.78;;;;;;;;;;10193376;28;20428;-71
2022/11/29 06:36:08;;;;;;;74.40;66.55;;;;;;;;;;10180934;28;20128;-71
2022/11/29 06:41:05;;;;;;;74.93;67.15;;;;;;;;;;10194630;28;20042;-71
2022/11/29 06:46:03;;;;;;;76.68;68.80;;;;;;;;;;10191832;28;20049;-71
2022/11/29 06:51:22;;;;;;;73.18;65.40;;;;;;;;;;10206793;28;20053;-71
2022/11/29 06:56:22;;;;;;;75.78;68.28;;;;;;;;;;10186383;28;20050;-71
2022/11/29 07:01:23;;;;;;;81.32;73.00;;;;;;;;;;10206732;28;20068;-71
2022/11/29 07:06:21;;;;;;;80.80;71.77;;;;;;;;;;10196225;28;20038;-72
2022/11/29 07:11:18;;;;;;;80.28;71.85;;;;;;;;;;10207867;28;20054;-71
2022/11/29 07:16:14;;;;;;;76.43;68.70;;;;;;;;;;10198286;28;20042;-71
2022/11/29 07:21:25;;;;;;;76.70;68.00;;;;;;;;;;10211229;28;20041;-71
2022/11/29 07:26:44;;;;;;;76.05;68.05;;;;;;;;;;10189412;28;20501;-72
2022/11/29 07:31:46;;;;;;;79.50;71.00;;;;;;;;;;10205419;28;20803;-72
2022/11/29 07:36:48;;;;;;;80.60;69.85;;;;;;;;;;10200172;28;20046;-71
2022/11/29 07:41:44;;;;;;;74.20;66.43;;;;;;;;;;10199201;28;20689;-72
2022/11/29 07:46:40;;;;;;;74.57;66.78;;;;;;;;;;10207051;28;20056;-72
2022/11/29 07:51:37;;;;;;;79.85;71.57;;;;;;;;;;10212957;28;20053;-72
2022/11/29 07:56:33;;;;;;;78.25;69.78;;;;;;;;;;10201817;28;20133;-71
2022/11/29 08:01:30;;;;;;;79.18;71.45;;;;;;;;;;10208392;28;20160;-72
2022/11/29 08:06:26;;;;;;;79.68;71.15;;;;;;;;;;10196361;28;20041;-72
2022/11/29 08:11:22;;;;;;;71.13;63.95;;;;;;;;;;10207893;28;20041;-71
2022/11/29 08:16:18;;;;;;;75.22;67.43;;;;;;;;;;10192695;28;20066;-71
2022/11/29 08:21:17;;;;;;;76.10;68.13;;;;;;;;;;10199214;28;20052;-71
2022/11/29 08:26:14;;;;;;;76.07;68.47;;;;;;;;;;10196781;28;20037;-71
2022/11/29 08:31:11;;;;;;;75.55;67.97;;;;;;;;;;10204255;28;20120;-72
2022/11/29 08:36:09;;;;;;;71.60;64.13;;;;;;;;;;10192089;28;20053;-71
2022/11/29 08:41:07;;;;;;;71.07;63.55;;;;;;;;;;10198152;28;20136;-72
2022/11/29 08:46:03;;;;;;;77.18;67.07;;;;;;;;;;10201015;28;20042;-72
2022/11/29 08:50:59;;;;;;;72.22;64.50;;;;;;;;;;10209568;28;20394;-72
2022/11/29 08:55:58;;;;;;;72.32;64.90;;;;;;;;;;10219043;28;20141;-72
2022/11/29 09:00:54;;;;;;;73.75;66.07;;;;;;;;;;10205221;28;20038;-72
2022/11/29 09:05:51;;;;;;;71.85;64.55;;;;;;;;;;10212702;28;20053;-72
2022/11/29 09:10:48;;;;;;;71.47;63.97;;;;;;;;;;10194765;28;20425;-71
2022/11/29 09:15:44;;;;;;;68.10;61.08;;;;;;;;;;10187516;28;20057;-72
2022/11/29 09:20:42;;;;;;;67.95;60.70;;;;;;;;;;10204053;28;20331;-72
2022/11/29 09:25:38;;;;;;;65.57;58.67;;;;;;;;;;10197019;28;20058;-72
2022/11/29 09:30:36;;;;;;;64.82;56.53;;;;;;;;;;10204516;28;20056;-72
2022/11/29 09:35:33;;;;;;;70.50;63.22;;;;;;;;;;10186777;28;20061;-71
2022/11/29 09:40:32;;;;;;;71.18;63.85;;;;;;;;;;10206516;28;20505;-72
2022/11/29 09:45:31;;;;;;;70.90;63.70;;;;;;;;;;10192963;28;20125;-71
2022/11/29 09:50:35;;;;;;;70.43;62.90;;;;;;;;;;10199596;28;20046;-72
2022/11/29 09:55:34;;;;;;;72.50;63.38;;;;;;;;;;10194875;28;20052;-72
2022/11/29 10:00:33;;;;;;;68.35;60.90;;;;;;;;;;10205374;28;20169;-72
2022/11/29 10:05:31;;;;;;;67.03;59.85;;;;;;;;;;10207943;28;20120;-72
2022/11/29 10:10:30;;;;;;;65.70;58.80;;;;;;;;;;10198937;28;20046;-71
2022/11/29 10:15:28;;;;;;;68.00;59.20;;;;;;;;;;10187251;28;20048;-72
2022/11/29 10:20:33;;;;;;;66.40;57.88;;;;;;;;;;10197099;28;20416;-72
2022/11/29 10:25:41;;;;;;;64.43;57.72;;;;;;;;;;10188105;28;20073;-72
2022/11/29 10:30:37;;;;;;;63.88;57.13;;;;;;;;;;10204073;28;20671;-72
2022/11/29 10:35:34;;;;;;;71.32;58.78;;;;;;;;;;10196898;28;20045;-72
2022/11/29 10:40:32;;;;;;;66.38;59.22;;;;;;;;;;10200398;28;20406;-72
2022/11/29 10:45:29;;;;;;;67.60;58.17;;;;;;;;;;10192347;28;20050;-72
2022/11/29 10:50:27;;;;;;;62.88;55.30;;;;;;;;;;10187612;28;20050;-72
2022/11/29 10:55:24;;;;;;;61.15;54.70;;;;;;;;;;10192412;28;20441;-72
2022/11/29 11:00:21;;;;;;;64.95;57.92;;;;;;;;;;10195343;28;21311;-72
2022/11/29 11:05:23;;;;;;;63.95;57.03;;;;;;;;;;10199370;28;20041;-72
2022/11/29 11:10:22;;;;;;;63.85;54.97;;;;;;;;;;10194315;28;20045;-72
2022/11/29 11:15:28;;;;;;;58.42;52.47;;;;;;;;;;10198925;28;20452;-72
2022/11/29 11:20:29;;;;;;;65.05;56.15;;;;;;;;;;10197892;28;20065;-72
2022/11/29 11:25:30;;;;;;;68.32;59.40;;;;;;;;;;10191919;28;20042;-72
2022/11/29 11:30:27;;;;;;;61.90;55.13;;;;;;;;;;10201304;28;20050;-72
2022/11/29 11:35:23;;;;;;;68.78;58.00;;;;;;;;;;10194847;28;20065;-72
2022/11/29 11:40:27;;;;;;;67.63;56.92;;;;;;;;;;10203791;28;20129;-72
2022/11/29 11:45:26;;;;;;;64.65;57.53;;;;;;;;;;10203648;28;20042;-72
2022/11/29 11:50:27;;;;;;;66.65;59.42;;;;;;;;;;10210345;28;20050;-72
2022/11/29 11:55:29;;;;;;;68.32;59.58;;;;;;;;;;10206745;28;20412;-72
2022/11/29 12:00:37;;;;;;;71.00;63.25;;;;;;;;;;10201921;28;20049;-72
2022/11/29 12:05:55;;;;;;;67.95;60.92;;;;;;;;;;10205293;28;20060;-72
2022/11/29 12:10:54;;;;;;;66.82;58.85;;;;;;;;;;10212872;28;20042;-72
2022/11/29 12:15:51;;;;;;;67.15;59.65;;;;;;;;;;10187200;28;20428;-72
2022/11/29 12:20:47;;;;;;;70.15;62.67;;;;;;;;;;10205037;28;20434;-72
2022/11/29 12:26:03;;;;;;;74.50;66.35;;;;;;;;;;10192214;28;20046;-71
2022/11/29 12:31:18;;;;;;;74.90;67.03;;;;;;;;;;10206181;28;20042;-72
2022/11/29 12:36:30;;;;;;;79.68;71.35;;;;;;;;;;10203684;28;20097;-71
2022/11/29 12:41:32;;;;;;;78.63;69.65;;;;;;;;;;10192442;28;20054;-71
2022/11/29 12:46:29;;;;;;;80.40;72.00;;;;;;;;;;10185301;28;20137;-72
2022/11/29 12:51:31;;;;;;;81.50;72.95;;;;;;;;;;10204159;28;20045;-72
2022/11/29 12:56:35;;;;;;;83.30;74.82;;;;;;;;;;10196558;28;20046;-72
2022/11/29 13:01:54;;;;;;;79.53;70.63;;;;;;;;;;10198936;28;20042;-72
2022/11/29 13:06:59;;;;;;;82.32;73.78;;;;;;;;;;10206976;28;20053;-72
2022/11/29 13:12:11;;;;;;;77.47;69.55;;;;;;;;;;10194072;28;20045;-71
2022/11/29 13:17:31;;;;;;;70.97;64.05;;;;;;;;;;10182621;28;20041;-72
2022/11/29 13:22:33;;;;;;;79.65;71.03;;;;;;;;;;10186615;28;20046;-72
2022/11/29 13:27:32;;;;;;;75.93;67.78;;;;;;;;;;10183800;28;20045;-72
2022/11/29 13:32:28;;;;;;;75.22;67.45;;;;;;;;;;10187339;28;20124;-72
2022/11/29 13:37:33;;;;;;;78.13;69.72;;;;;;;;;;10186592;28;20052;-71
2022/11/29 13:42:36;;;;;;;79.75;71.45;;;;;;;;;;10188055;28;20042;-71
2022/11/29 13:47:45;;;;;;;77.63;69.15;;;;;;;;;;10193547;28;20042;-72
2022/11/29 13:52:46;;;;;;;84.22;73.70;;;;;;;;;;10185343;28;20065;-71
2022/11/29 13:58:00;;;;;;;79.72;71.18;;;;;;;;;;10186352;28;20176;-72
2022/11/29 14:03:18;;;;;;;83.95;74.97;;;;;;;;;;10185665;28;20124;-71
2022/11/29 14:08:29;;;;;;;85.53;76.28;;;;;;;;;;10194035;28;20045;-72
2022/11/29 14:13:51;;;;;;;82.93;73.90;;;;;;;;;;10205093;28;20046;-72
2022/11/29 14:19:01;;;;;;;83.25;74.43;;;;;;;;;;10201248;28;20049;-71
2022/11/29 14:24:17;;;;;;;84.28;74.70;;;;;;;;;;10189426;28;20060;-71
2022/11/29 14:29:48;;;;;;;82.22;73.78;;;;;;;;;;10189952;28;20042;-71
2022/11/29 14:34:49;;;;;;;84.20;75.38;;;;;;;;;;10178893;28;20052;-73
2022/11/29 14:39:47;;;;;;;86.00;77.00;;;;;;;;;;10192541;28;20077;-71
2022/11/29 14:44:49;;;;;;;85.55;76.28;;;;;;;;;;10190352;28;20441;-72
2022/11/29 14:49:46;;;;;;;87.32;77.82;;;;;;;;;;10183452;28;20056;-72
2022/11/29 14:54:56;;;;;;;89.35;80.00;;;;;;;;;;10192434;28;20045;-71
2022/11/29 14:59:53;;;;;;;84.80;75.82;;;;;;;;;;10193909;28;20042;-73
2022/11/29 15:04:51;;;;;;;94.60;79.53;;;;;;;;;;10190134;28;20068;-71
2022/11/29 15:09:49;;;;;;;86.32;76.95;;;;;;;;;;10198830;28;20476;-72
2022/11/29 15:15:03;;;;;;;87.90;77.85;;;;;;;;;;10185730;28;20050;-71
2022/11/29 15:20:09;;;;;;;94.22;83.97;;;;;;;;;;10183017;28;20113;-71
2022/11/29 15:25:10;;;;;;;91.57;82.05;;;;;;;;;;10195204;28;20049;-71
2022/11/29 15:30:25;;;;;;;88.53;79.38;;;;;;;;;;10193665;28;20497;-71
2022/11/29 15:35:21;;;;;;;91.90;82.32;;;;;;;;;;10190075;28;20077;-71
2022/11/29 15:40:19;;;;;;;90.15;80.75;;;;;;;;;;10191993;28;20046;-71
2022/11/29 15:45:22;;;;;;;87.18;77.95;;;;;;;;;;10206302;28;20092;-71
2022/11/29 15:50:24;;;;;;;88.18;79.00;;;;;;;;;;10184866;28;20680;-72
2022/11/29 15:55:20;;;;;;;89.37;79.87;;;;;;;;;;10185343;28;20048;-71
2022/11/29 16:00:19;;;;;;;92.10;82.13;;;;;;;;;;10190511;28;20107;-71
2022/11/29 16:05:21;;;;;;;90.72;81.57;;;;;;;;;;10190205;28;20125;-72
2022/11/29 16:10:21;;;;;;;84.72;75.55;;;;;;;;;;10203533;28;20045;-71
2022/11/29 16:15:37;;;;;;;87.97;78.47;;;;;;;;;;10196035;28;20049;-71
2022/11/29 16:20:33;;;;;;;87.47;78.60;;;;;;;;;;10192851;28;20410;-71
2022/11/29 16:25:31;;;;;;;90.70;81.07;;;;;;;;;;10187450;28;20084;-72
2022/11/29 16:30:33;;;;;;;88.75;79.68;;;;;;;;;;10187740;28;20159;-71
2022/11/29 16:35:31;;;;;;;89.03;79.50;;;;;;;;;;10194047;28;20128;-71
2022/11/29 16:40:29;;;;;;;84.57;75.38;;;;;;;;;;10197329;28;20042;-71
2022/11/29 16:45:35;;;;;;;87.47;78.15;;;;;;;;;;10202783;28;20633;-71
2022/11/29 16:50:32;;;;;;;86.88;78.03;;;;;;;;;;10184570;28;20662;-71
2022/11/29 16:55:28;;;;;;;85.93;76.90;;;;;;;;;;10182816;28;20049;-71
2022/11/29 17:00:29;;;;;;;87.03;77.65;;;;;;;;;;10190794;28;20042;-71
2022/11/29 17:05:25;;;;;;;86.25;77.20;;;;;;;;;;10190954;28;20042;-71
2022/11/29 17:10:23;;;;;;;84.03;75.40;;;;;;;;;;10189257;28;20125;-72
2022/11/29 17:15:19;;;;;;;94.07;84.18;;;;;;;;;;10195603;28;20045;-71
2022/11/29 17:20:15;;;;;;;88.03;79.10;;;;;;;;;;10177483;28;20049;-71
2022/11/29 17:25:12;;;;;;;92.15;82.78;;;;;;;;;;10189197;28;20049;-71
2022/11/29 17:30:10;;;;;;;89.82;80.15;;;;;;;;;;10199933;28;20145;-71
2022/11/29 17:35:06;;;;;;;87.82;78.75;;;;;;;;;;10182340;28;20053;-70
2022/11/29 17:40:03;;;;;;;92.28;82.30;;;;;;;;;;10185299;28;20607;-70
2022/11/29 17:45:00;;;;;;;91.68;81.85;;;;;;;;;;10190842;28;20117;-71
2022/11/29 17:49:57;;;;;;;93.65;83.65;;;;;;;;;;10182883;28;20050;-71
2022/11/29 17:54:53;;;;;;;98.72;88.78;;;;;;;;;;10182310;28;20081;-71
2022/11/29 17:59:49;;;;;;;100.40;90.05;;;;;;;;;;10181922;28;20124;-71
2022/11/29 18:04:45;;;;;;;99.00;88.63;;;;;;;;;;10180001;28;20058;-72
2022/11/29 18:09:42;;;;;;;97.20;87.32;;;;;;;;;;10177716;28;20078;-71
2022/11/29 18:14:40;;;;;;;103.05;92.22;;;;;;;;;;10183566;28;20427;-71
2022/11/29 18:19:36;;;;;;;103.05;92.45;;;;;;;;;;10171881;28;20124;-72
2022/11/29 18:24:33;;;;;;;104.35;93.82;;;;;;;;;;10188133;28;20056;-72
2022/11/29 18:29:29;;;;;;;106.40;95.40;;;;;;;;;;10191609;28;20184;-72
2022/11/29 18:34:32;;;;;;;107.68;96.85;;;;;;;;;;10174985;28;20050;-72
2022/11/29 18:39:29;;;;;;;106.75;95.65;;;;;;;;;;10169325;28;20057;-72
2022/11/29 18:44:28;;;;;;;111.05;100.07;;;;;;;;;;10170496;28;20124;-72
2022/11/29 18:49:24;;;;;;;112.63;101.78;;;;;;;;;;10174830;28;20042;-71
2022/11/29 18:54:20;;;;;;;113.55;102.00;;;;;;;;;;10177250;28;20041;-71
2022/11/29 18:59:17;;;;;;;113.40;101.18;;;;;;;;;;10181061;28;20053;-71
2022/11/29 19:04:18;;;;;;;109.65;98.38;;;;;;;;;;10193853;28;20552;-71
2022/11/29 19:09:19;;;;;;;113.60;98.53;;;;;;;;;;10198488;28;20797;-72
2022/11/29 19:14:17;;;;;;;108.47;97.38;;;;;;;;;;10178401;28;20045;-72
2022/11/29 19:19:13;;;;;;;110.40;98.65;;;;;;;;;;10196972;28;20223;-71
2022/11/29 19:24:12;;;;;;;105.43;94.32;;;;;;;;;;10200225;28;20073;-71
2022/11/29 19:29:09;;;;;;;108.93;96.95;;;;;;;;;;10181527;28;20061;-71
2022/11/29 19:34:05;;;;;;;114.55;102.57;;;;;;;;;;10205145;28;20052;-71
2022/11/29 19:39:02;;;;;;;104.05;92.80;;;;;;;;;;10205408;28;20137;-71
2022/11/29 19:44:00;;;;;;;106.97;93.50;;;;;;;;;;10194593;28;20125;-72
2022/11/29 19:48:57;;;;;;;119.15;100.93;;;;;;;;;;10199389;28;20080;-71
2022/11/29 19:53:57;;;;;;;108.93;97.38;;;;;;;;;;10192868;28;20161;-71
2022/11/29 19:58:54;;;;;;;111.35;98.03;;;;;;;;;;10198693;28;20046;-71
2022/11/29 20:03:51;;;;;;;112.47;91.95;;;;;;;;;;10200731;28;20081;-71
2022/11/29 20:08:47;;;;;;;107.22;94.82;;;;;;;;;;10179895;28;20521;-72
2022/11/29 20:13:44;;;;;;;110.63;98.55;;;;;;;;;;10182721;28;20045;-72
2022/11/29 20:18:41;;;;;;;113.93;101.15;;;;;;;;;;10188278;28;20144;-72
2022/11/29 20:23:45;;;;;;;116.65;93.90;;;;;;;;;;10196252;28;20696;-71
2022/11/29 20:28:42;;;;;;;108.20;96.40;;;;;;;;;;10175916;28;20042;-71
2022/11/29 20:33:40;;;;;;;115.70;94.68;;;;;;;;;;10186082;28;20041;-72
2022/11/29 20:38:47;;;;;;;112.13;98.95;;;;;;;;;;10189312;28;20144;-72
2022/11/29 20:44:03;;;;;;;112.30;96.88;;;;;;;;;;10205683;28;20081;-72
2022/11/29 20:49:02;;;;;;;117.18;97.60;;;;;;;;;;10204741;28;20668;-72
2022/11/29 20:54:02;;;;;;;109.30;97.43;;;;;;;;;;10191484;28;20052;-72
2022/11/29 20:58:58;;;;;;;106.68;95.05;;;;;;;;;;10207432;28;20522;-71
2022/11/29 21:03:54;;;;;;;115.80;100.43;;;;;;;;;;10189841;28;20050;-71
2022/11/29 21:08:52;;;;;;;111.20;99.15;;;;;;;;;;10209215;28;20402;-71
2022/11/29 21:13:48;;;;;;;111.35;98.65;;;;;;;;;;10186072;28;20049;-71
2022/11/29 21:18:46;;;;;;;105.60;94.10;;;;;;;;;;10196011;28;20042;-71
2022/11/29 21:23:49;;;;;;;105.15;93.80;;;;;;;;;;10189033;28;20480;-73
2022/11/29 21:28:53;;;;;;;106.25;93.80;;;;;;;;;;10186751;28;20046;-68
2022/11/29 21:33:49;;;;;;;104.63;93.63;;;;;;;;;;10189493;28;20053;-74
2022/11/29 21:38:46;;;;;;;101.47;89.32;;;;;;;;;;10185393;28;20065;-74
2022/11/29 21:43:50;;;;;;;108.88;92.10;;;;;;;;;;10181715;28;20054;-75
2022/11/29 21:49:02;;;;;;;107.93;93.93;;;;;;;;;;10181032;28;20052;-74
2022/11/29 21:53:59;;;;;;;107.82;95.47;;;;;;;;;;10179983;28;20132;-74
2022/11/29 21:58:56;;;;;;;105.65;92.70;;;;;;;;;;10182439;28;21330;-73
2022/11/29 22:03:52;;;;;;;106.82;89.18;;;;;;;;;;10177492;28;20046;-72
2022/11/29 22:08:49;;;;;;;106.03;93.55;;;;;;;;;;10172886;28;20052;-73
2022/11/29 22:19:00;;;;;;;106.07;90.72;;;;;;;;;;10206643;28;20124;-72
2022/11/29 22:23:56;;;;;;;100.32;86.57;;;;;;;;;;10207621;28;20064;-71
2022/11/29 22:28:52;;;;;;;111.50;90.32;;;;;;;;;;10203907;28;20038;-69
2022/11/29 22:33:51;;;;;;;106.53;89.50;;;;;;;;;;10199003;28;20047;-70
2022/11/29 22:38:47;;;;;;;103.90;89.22;;;;;;;;;;10201492;28;20050;-70
2022/11/29 22:43:43;;;;;;;104.80;91.70;;;;;;;;;;10206078;28;20573;-72
2022/11/29 22:48:41;;;;;;;105.88;94.35;;;;;;;;;;10210744;28;20042;-71
2022/11/29 22:53:39;;;;;;;103.18;92.25;;;;;;;;;;10186720;28;20045;-74
2022/11/29 22:58:35;;;;;;;106.43;89.63;;;;;;;;;;10198923;28;20042;-72
2022/11/29 23:03:58;;;;;;;108.60;94.28;;;;;;;;;;10205578;28;20410;-73
2022/11/29 23:08:56;;;;;;;113.22;92.10;;;;;;;;;;10205337;28;20061;-71
2022/11/29 23:13:52;;;;;;;109.53;92.32;;;;;;;;;;10204579;28;20172;-71
2022/11/29 23:18:49;;;;;;;108.38;94.55;;;;;;;;;;10211447;28;20046;-71
2022/11/29 23:23:45;;;;;;;110.85;90.28;;;;;;;;;;10197668;28;20069;-73
2022/11/29 23:28:48;;;;;;;;;;;;;;;;;;10209682;28;20057;-73
2022/11/29 23:33:44;;;;;;;101.93;90.88;;;;;;;;;;10211402;28;19972;-72
2022/11/29 23:38:41;;;;;;;95.13;83.43;;;;;;;;;;10198810;28;20133;-73
2022/11/29 23:43:39;;;;;;;98.63;87.93;;;;;;;;;;10201861;28;20518;-72
2022/11/29 23:48:35;;;;;;;101.32;88.20;;;;;;;;;;10194608;28;20574;-73
2022/11/29 23:53:31;;;;;;;102.05;87.85;;;;;;;;;;10200860;28;20045;-73
2022/11/29 23:58:28;;;;;;;100.13;80.43;;;;;;;;;;10198955;28;20510;-71
